White Post, Virginia
Current Conditions -  °F | °C
As of 1:55 PM on Thursday 23 Oct 2014 (Local Time) from KOKV Reporting Station
Overcast Overcast  
Wind Chill: 16°   Ceiling: 4200
Heat Index: 16°   Visibility: 10mi
Dew Point:   Wind: 18mph
Humidity: 42%   Direction: 310°NW
Pressure: 29.94"   Gusts: 25mph
Location:  39.06°N, 78.1°W
Report Text: KOKV 231755Z AUTO 31016G22KT 10SM OVC042 16/03 A2994 RMK AO2
Loading
Personal Weather Stations






























Interactive Weather Map
Tropical Storm Tracking
New forecast layout! Learn more

10-Day Weather Forecast

Advertisements
Track Severe Weather on mobile